Time;durP1;ratioP1;P1;durP2;ratioP2;P2;SDS_P1;SDS_P2;PMS_P1;PMS_P2;Temp;Humidity;BMP_temperature;BMP_pressure;BME280_temperature;BME280_humidity;BME280_pressure;Samples;Min_cycle;Max_cycle;Signal;HPM_P1;HPM_P2
2022/10/26 00:01:16;;;;;;;120.77;113.37;;;;;;;10.91;100.00;101535.53;4992224;28;20430;-49
2022/10/26 00:03:46;;;;;;;120.70;114.47;;;;;;;10.95;100.00;101538.69;4991411;28;20434;-52
2022/10/26 00:06:17;;;;;;;121.00;114.50;;;;;;;10.99;100.00;101542.66;4998018;28;20480;-48
2022/10/26 00:08:45;;;;;;;125.07;117.47;;;;;;;10.99;100.00;101540.00;4998387;28;20418;-51
2022/10/26 00:11:13;;;;;;;126.77;120.43;;;;;;;11.00;100.00;101536.28;5009333;28;20433;-51
2022/10/26 00:13:41;;;;;;;136.20;129.87;;;;;;;11.01;100.00;101532.63;5003310;28;20437;-49
2022/10/26 00:16:11;;;;;;;110.03;104.30;;;;;;;11.01;100.00;101545.97;4993642;28;20426;-51
2022/10/26 00:18:38;;;;;;;117.27;111.07;;;;;;;11.00;100.00;101538.97;4999820;28;20433;-49
2022/10/26 00:21:08;;;;;;;119.87;113.67;;;;;;;11.03;100.00;101542.09;5022209;28;20436;-46
2022/10/26 00:23:37;;;;;;;127.03;120.13;;;;;;;11.05;100.00;101545.41;5024591;28;20538;-46
2022/10/26 00:26:05;;;;;;;134.27;127.37;;;;;;;11.08;100.00;101550.38;5000283;28;20504;-47
2022/10/26 00:28:33;;;;;;;131.33;123.27;;;;;;;11.09;100.00;101552.06;4996302;28;20567;-47
2022/10/26 00:31:01;;;;;;;135.77;128.97;;;;;;;11.13;100.00;101552.53;5011416;28;20437;-46
2022/10/26 00:33:29;;;;;;;132.50;126.20;;;;;;;11.16;100.00;101546.84;5006242;28;20480;-46
2022/10/26 00:35:57;;;;;;;136.63;129.83;;;;;;;11.22;100.00;101542.59;4997435;28;20441;-46
2022/10/26 00:38:24;;;;;;;135.40;128.20;;;;;;;11.24;100.00;101545.91;5011000;28;20852;-49
2022/10/26 00:40:53;;;;;;;140.50;133.43;;;;;;;11.28;100.00;101545.38;5010320;28;20491;-47
2022/10/26 00:43:38;;;;;;;139.50;132.63;;;;;;;11.31;100.00;101546.84;5010760;28;20433;-47
2022/10/26 00:46:11;;;;;;;147.47;139.77;;;;;;;11.31;100.00;101553.03;5010959;28;20547;-48
2022/10/26 00:48:43;;;;;;;143.07;135.67;;;;;;;11.29;100.00;101543.56;5001308;28;20429;-49
2022/10/26 00:51:15;;;;;;;149.60;141.93;;;;;;;11.25;100.00;101544.91;5010758;28;20822;-46
2022/10/26 00:53:43;;;;;;;150.83;143.80;;;;;;;11.19;100.00;101550.97;5003399;28;20423;-51
2022/10/26 00:56:13;;;;;;;150.67;143.07;;;;;;;11.11;100.00;101544.69;5001666;28;21182;-48
2022/10/26 00:58:41;;;;;;;152.90;145.33;;;;;;;11.05;100.00;101544.59;5006140;28;20431;-47
2022/10/26 01:01:09;;;;;;;157.17;150.13;;;;;;;10.98;100.00;101551.66;5005651;28;20499;-48
2022/10/26 01:03:37;;;;;;;152.00;144.60;;;;;;;10.90;100.00;101543.72;4994800;28;20429;-48
2022/10/26 01:06:06;;;;;;;152.03;144.83;;;;;;;10.84;100.00;101544.44;4997051;28;20470;-49
2022/10/26 01:08:34;;;;;;;155.30;147.80;;;;;;;10.77;100.00;101548.81;5004275;28;20509;-48
2022/10/26 01:11:03;;;;;;;151.63;144.40;;;;;;;10.71;100.00;101544.19;4991193;28;20438;-49
2022/10/26 01:13:35;;;;;;;153.80;146.47;;;;;;;10.64;100.00;101541.41;5004293;28;20426;-51
2022/10/26 01:16:14;;;;;;;156.33;148.27;;;;;;;10.60;100.00;101547.28;4991043;28;20931;-51
2022/10/26 01:18:50;;;;;;;157.40;149.67;;;;;;;10.54;100.00;101548.81;5004184;28;20433;-49
2022/10/26 01:21:41;;;;;;;154.17;146.50;;;;;;;10.46;100.00;101541.69;5007191;28;20981;-49
2022/10/26 01:24:22;;;;;;;156.30;148.40;;;;;;;10.41;100.00;101540.56;4997676;28;20437;-50
2022/10/26 01:26:59;;;;;;;157.20;149.20;;;;;;;10.35;100.00;101531.44;4993532;28;20857;-47
2022/10/26 01:29:48;;;;;;;155.80;148.60;;;;;;;10.30;100.00;101530.31;5009435;28;20456;-47
2022/10/26 01:32:23;;;;;;;158.90;150.87;;;;;;;10.24;100.00;101529.19;5008189;28;20468;-46
2022/10/26 01:34:59;;;;;;;155.90;148.13;;;;;;;10.18;100.00;101535.22;5010280;28;20428;-48
2022/10/26 01:37:32;;;;;;;151.67;144.17;;;;;;;10.13;100.00;101534.88;5009863;28;20456;-49
2022/10/26 01:40:06;;;;;;;159.90;152.50;;;;;;;10.08;100.00;101534.56;5009301;28;20472;-49
2022/10/26 01:42:36;;;;;;;155.03;146.90;;;;;;;10.03;100.00;101543.06;5010020;28;20437;-49
2022/10/26 01:45:07;;;;;;;162.63;153.93;;;;;;;10.01;100.00;101546.91;5008631;28;20477;-50
2022/10/26 01:47:39;;;;;;;161.70;154.40;;;;;;;10.00;100.00;101539.94;5006386;28;20466;-47
2022/10/26 01:50:08;;;;;;;158.57;150.57;;;;;;;10.00;100.00;101545.25;5009326;28;20515;-47
2022/10/26 01:52:36;;;;;;;163.70;154.93;;;;;;;10.00;100.00;101542.59;5010758;28;20926;-49
2022/10/26 01:55:26;;;;;;;154.03;146.77;;;;;;;9.98;100.00;101534.75;5010999;28;20923;-49
2022/10/26 01:58:01;;;;;;;163.33;155.30;;;;;;;9.98;100.00;101540.09;5001598;28;20970;-46
2022/10/26 02:00:32;;;;;;;154.10;146.30;;;;;;;9.97;100.00;101545.59;5010672;28;20456;-46
2022/10/26 02:03:14;;;;;;;158.33;149.53;;;;;;;9.93;100.00;101531.78;5012650;28;21016;-46
2022/10/26 02:05:54;;;;;;;160.77;152.60;;;;;;;9.92;100.00;101540.78;5012706;28;20464;-48
2022/10/26 02:08:32;;;;;;;160.37;151.97;;;;;;;9.88;100.00;101534.16;5012736;28;21127;-46
2022/10/26 02:11:10;;;;;;;166.40;157.03;;;;;;;9.86;100.00;101533.47;5012616;28;20441;-49
2022/10/26 02:13:45;;;;;;;153.77;146.67;;;;;;;9.83;100.00;101532.97;5013110;28;20437;-50
2022/10/26 02:16:20;;;;;;;160.43;152.53;;;;;;;9.81;100.00;101532.34;5013002;28;20452;-48
2022/10/26 02:18:54;;;;;;;164.70;155.20;;;;;;;9.79;100.00;101535.19;5012551;28;20441;-48
2022/10/26 02:21:26;;;;;;;161.80;152.83;;;;;;;9.77;100.00;101531.84;5020490;28;20935;-48
2022/10/26 02:23:57;;;;;;;167.17;157.37;;;;;;;9.74;100.00;101531.34;5019339;28;20437;-46
2022/10/26 02:26:28;;;;;;;170.00;160.93;;;;;;;9.71;100.00;101527.19;5012763;28;20924;-46
2022/10/26 02:29:01;;;;;;;165.20;155.90;;;;;;;9.68;100.00;101521.38;5011659;28;20515;-49
2022/10/26 02:31:30;;;;;;;164.97;156.77;;;;;;;9.66;100.00;101534.03;5000897;28;20468;-47
2022/10/26 02:34:03;;;;;;;166.10;157.63;;;;;;;9.62;100.00;101535.38;5012192;28;20433;-48
2022/10/26 02:36:36;;;;;;;165.60;156.80;;;;;;;9.59;100.00;101522.44;5009837;28;20456;-48
2022/10/26 02:39:05;;;;;;;168.67;159.97;;;;;;;9.57;100.00;101524.41;5010991;28;20511;-46
2022/10/26 02:41:35;;;;;;;170.97;162.33;;;;;;;9.51;100.00;101528.59;5012057;28;20480;-46
2022/10/26 02:44:08;;;;;;;166.53;157.40;;;;;;;9.47;100.00;101521.94;5012321;28;20532;-50
2022/10/26 02:46:36;;;;;;;167.87;159.47;;;;;;;9.42;100.00;101519.81;5012194;28;20480;-47
2022/10/26 02:49:06;;;;;;;168.83;160.17;;;;;;;9.38;100.00;101525.63;4993060;28;20466;-48
2022/10/26 02:51:39;;;;;;;171.43;162.83;;;;;;;9.34;100.00;101514.50;4993634;28;20785;-45
2022/10/26 02:54:14;;;;;;;172.70;162.70;;;;;;;9.34;100.00;101508.34;5008708;28;20487;-48
2022/10/26 02:56:47;;;;;;;173.33;164.30;;;;;;;9.31;100.00;101512.19;5012511;28;20507;-53
2022/10/26 02:59:16;;;;;;;185.57;173.77;;;;;;;9.29;100.00;101505.34;5011606;28;20457;-52
2022/10/26 03:01:44;;;;;;;179.47;168.30;;;;;;;9.26;100.00;101511.00;5012200;28;20437;-49
2022/10/26 03:04:14;;;;;;;177.67;167.13;;;;;;;9.24;100.00;101513.84;5012273;28;20810;-51
2022/10/26 03:06:41;;;;;;;185.87;175.30;;;;;;;9.24;100.00;101508.53;5008476;28;20480;-49
2022/10/26 03:09:09;;;;;;;177.60;167.40;;;;;;;9.21;100.00;101510.69;5011396;28;20515;-50
2022/10/26 03:11:37;;;;;;;181.63;172.23;;;;;;;9.18;100.00;101511.03;5010789;28;20926;-48
2022/10/26 03:14:04;;;;;;;176.77;166.83;;;;;;;9.15;100.00;101514.03;5018559;28;20431;-53
2022/10/26 03:16:32;;;;;;;173.00;162.73;;;;;;;9.07;100.00;101512.22;5026484;28;20448;-53
2022/10/26 03:18:59;;;;;;;164.73;156.47;;;;;;;9.02;100.00;101519.84;5011146;28;20510;-51
2022/10/26 03:21:28;;;;;;;176.60;166.30;;;;;;;8.97;100.00;101514.22;5018938;28;20432;-49
2022/10/26 03:23:56;;;;;;;174.20;165.40;;;;;;;8.91;100.00;101512.22;5013245;28;20433;-52
2022/10/26 03:26:23;;;;;;;179.67;169.90;;;;;;;8.89;100.00;101507.09;5007598;28;20612;-49
2022/10/26 03:28:51;;;;;;;193.30;181.20;;;;;;;8.88;100.00;101517.88;5001716;28;20833;-54
2022/10/26 03:31:19;;;;;;;185.47;174.60;;;;;;;8.84;100.00;101509.38;5011792;28;20434;-48
2022/10/26 03:33:46;;;;;;;178.10;168.50;;;;;;;8.82;100.00;101507.91;5011527;28;20476;-51
2022/10/26 03:36:14;;;;;;;179.10;169.50;;;;;;;8.78;100.00;101506.59;5011503;28;20449;-49
2022/10/26 03:38:43;;;;;;;181.60;172.40;;;;;;;8.74;100.00;101515.88;4997718;28;20789;-50
2022/10/26 03:41:10;;;;;;;346.07;330.67;;;;;;;8.70;100.00;101507.41;5011350;28;20441;-49
2022/10/26 03:43:38;;;;;;;287.93;274.63;;;;;;;8.69;100.00;101515.56;5011262;28;20484;-48
2022/10/26 03:46:06;;;;;;;298.23;284.87;;;;;;;8.67;100.00;101515.72;5011329;28;21074;-46
2022/10/26 03:48:33;;;;;;;283.73;270.97;;;;;;;8.66;100.00;101511.38;5010519;28;20425;-47
2022/10/26 03:51:01;;;;;;;263.93;251.33;;;;;;;8.63;100.00;101511.72;5011132;28;20441;-45
2022/10/26 03:53:28;;;;;;;204.47;194.10;;;;;;;8.61;100.00;101515.53;5010847;28;20487;-45
2022/10/26 03:55:57;;;;;;;191.83;182.67;;;;;;;8.59;100.00;101523.69;5010563;28;20487;-52
2022/10/26 03:58:25;;;;;;;195.30;185.60;;;;;;;8.57;100.00;101520.34;5006863;28;20570;-51
2022/10/26 04:00:53;;;;;;;191.47;181.40;;;;;;;8.55;100.00;101516.19;5010430;28;20489;-52
2022/10/26 04:03:20;;;;;;;193.20;183.87;;;;;;;8.52;100.00;101522.69;5011271;28;20437;-51
2022/10/26 04:05:48;;;;;;;195.73;184.77;;;;;;;8.52;100.00;101513.88;5002435;28;20437;-51
2022/10/26 04:08:16;;;;;;;197.40;186.77;;;;;;;8.51;100.00;101514.88;5010553;28;20966;-49
2022/10/26 04:10:46;;;;;;;196.80;185.80;;;;;;;8.51;100.00;101523.66;5010234;28;21002;-47
2022/10/26 04:13:14;;;;;;;214.50;202.37;;;;;;;8.50;100.00;101523.84;5010778;28;20492;-51
2022/10/26 04:15:42;;;;;;;205.90;194.97;;;;;;;8.51;100.00;101522.84;5007476;28;20487;-52
2022/10/26 04:18:11;;;;;;;198.07;188.10;;;;;;;8.50;100.00;101523.84;4999479;28;20863;-52
2022/10/26 04:20:41;;;;;;;194.90;185.23;;;;;;;8.46;100.00;101531.31;5007670;28;20461;-48
2022/10/26 04:23:11;;;;;;;196.47;186.90;;;;;;;8.42;100.00;101521.19;5015336;28;21064;-46
2022/10/26 04:25:39;;;;;;;198.50;189.17;;;;;;;8.38;100.00;101527.81;5007962;28;20438;-50
2022/10/26 04:28:08;;;;;;;205.73;194.40;;;;;;;8.34;100.00;101530.78;5010046;28;20485;-48
2022/10/26 04:30:38;;;;;;;206.17;195.63;;;;;;;8.34;100.00;101535.25;5000537;28;20515;-49
2022/10/26 04:33:06;;;;;;;211.67;199.33;;;;;;;8.32;100.00;101530.13;5009829;28;20969;-50
2022/10/26 04:35:34;;;;;;;206.10;195.80;;;;;;;8.32;100.00;101538.09;5010674;28;20437;-47
2022/10/26 04:38:03;;;;;;;204.17;193.47;;;;;;;8.31;100.00;101536.44;5008086;28;20997;-47
2022/10/26 04:40:32;;;;;;;193.20;183.70;;;;;;;8.28;100.00;101535.91;5009943;28;20457;-45
2022/10/26 04:43:00;;;;;;;201.87;191.73;;;;;;;8.27;100.00;101532.41;5009973;28;20975;-46
2022/10/26 04:45:29;;;;;;;210.57;197.30;;;;;;;8.26;100.00;101544.03;5010470;28;20842;-45
2022/10/26 04:48:04;;;;;;;208.83;198.43;;;;;;;8.28;100.00;101550.03;5010567;28;20845;-51
2022/10/26 04:50:32;;;;;;;202.33;191.70;;;;;;;8.30;100.00;101548.03;5010201;28;20464;-51
2022/10/26 04:53:00;;;;;;;203.33;193.50;;;;;;;8.37;100.00;101539.41;5001290;28;20481;-49
2022/10/26 04:55:28;;;;;;;213.87;202.10;;;;;;;8.42;100.00;101537.13;5007620;28;20488;-48
2022/10/26 04:57:55;;;;;;;205.37;194.20;;;;;;;8.47;100.00;101537.47;5010468;28;20449;-46
2022/10/26 05:00:28;;;;;;;203.87;192.07;;;;;;;8.52;100.00;101532.47;5009987;28;20467;-46
2022/10/26 05:02:59;;;;;;;216.70;201.97;;;;;;;8.58;100.00;101543.28;5010638;28;20467;-51
2022/10/26 05:05:28;;;;;;;231.50;208.03;;;;;;;8.62;100.00;101543.78;4997718;28;20429;-46
2022/10/26 05:07:57;;;;;;;203.27;192.40;;;;;;;8.69;100.00;101539.50;5009995;28;20838;-48
2022/10/26 05:10:25;;;;;;;200.27;188.30;;;;;;;8.74;100.00;101537.16;5009523;28;20453;-48
2022/10/26 05:12:53;;;;;;;202.70;191.40;;;;;;;8.79;100.00;101534.81;5009755;28;20433;-48
2022/10/26 05:15:21;;;;;;;227.83;204.13;;;;;;;8.83;100.00;101530.84;5010171;28;20499;-53
2022/10/26 05:17:55;;;;;;;214.37;199.03;;;;;;;8.87;100.00;101524.19;5010591;28;20453;-50
2022/10/26 05:20:28;;;;;;;213.53;199.57;;;;;;;8.90;100.00;101531.81;5011776;28;20460;-51
2022/10/26 05:22:57;;;;;;;221.03;203.80;;;;;;;8.93;100.00;101530.69;5018031;28;20429;-48
2022/10/26 05:25:25;;;;;;;241.90;220.63;;;;;;;8.95;100.00;101532.19;5010042;28;20430;-50
2022/10/26 05:27:57;;;;;;;304.83;229.80;;;;;;;8.98;100.00;101523.03;5010794;28;20978;-48
2022/10/26 05:30:25;;;;;;;232.30;211.07;;;;;;;9.00;100.00;101535.16;5013287;28;20495;-50
2022/10/26 05:32:56;;;;;;;304.47;223.00;;;;;;;9.01;100.00;101534.19;5012895;28;20421;-48
2022/10/26 05:35:24;;;;;;;233.07;208.67;;;;;;;9.03;100.00;101540.16;5011055;28;20491;-48
2022/10/26 05:37:52;;;;;;;237.30;211.20;;;;;;;9.05;100.00;101546.13;5013720;28;20476;-49
2022/10/26 05:40:22;;;;;;;277.77;209.60;;;;;;;9.06;100.00;101547.81;5012916;28;20460;-49
2022/10/26 05:42:49;;;;;;;288.50;209.97;;;;;;;9.07;100.00;101543.31;5013306;28;20479;-50
2022/10/26 05:45:18;;;;;;;202.43;190.17;;;;;;;9.09;100.00;101547.47;5008462;28;20441;-47
2022/10/26 05:47:46;;;;;;;249.03;215.97;;;;;;;9.10;100.00;101550.97;5004852;28;20547;-51
2022/10/26 05:50:14;;;;;;;221.17;205.03;;;;;;;9.09;100.00;101560.78;5008863;28;21054;-46
2022/10/26 05:52:43;;;;;;;243.80;218.33;;;;;;;9.08;100.00;101553.78;5007546;28;20425;-45
2022/10/26 05:55:12;;;;;;;213.80;200.47;;;;;;;9.08;100.00;101558.28;5012374;28;20468;-51
2022/10/26 05:57:42;;;;;;;227.70;208.20;;;;;;;9.08;100.00;101556.44;5010009;28;20453;-48
2022/10/26 06:00:15;;;;;;;226.27;208.73;;;;;;;9.08;100.00;101552.97;5012732;28;20488;-47
2022/10/26 06:02:52;;;;;;;260.30;231.07;;;;;;;9.06;100.00;101547.81;5002427;28;20586;-47
2022/10/26 06:05:23;;;;;;;274.67;224.90;;;;;;;9.06;100.00;101554.94;5013117;28;20487;-47
2022/10/26 06:07:52;;;;;;;228.07;211.77;;;;;;;9.06;100.00;101553.13;5009195;28;21006;-49
2022/10/26 06:10:20;;;;;;;218.60;203.33;;;;;;;9.05;100.00;101548.78;5006326;28;20515;-50
2022/10/26 06:12:50;;;;;;;241.23;219.93;;;;;;;9.05;100.00;101562.09;5008819;28;20429;-48
2022/10/26 06:15:20;;;;;;;245.63;223.77;;;;;;;9.06;100.00;101563.75;5011229;28;20429;-48
2022/10/26 06:18:01;;;;;;;246.67;222.93;;;;;;;9.08;100.00;101564.41;5012048;28;20495;-46
2022/10/26 06:20:41;;;;;;;232.43;215.67;;;;;;;9.11;100.00;101560.63;5011520;28;20464;-51
2022/10/26 06:23:37;;;;;;;255.80;231.60;;;;;;;9.14;100.00;101568.28;5022711;28;20436;-48
2022/10/26 06:26:10;;;;;;;240.63;225.20;;;;;;;9.16;100.00;101571.59;5004445;28;20459;-50
2022/10/26 06:28:47;;;;;;;263.17;236.80;;;;;;;9.20;100.00;101576.38;5009780;28;20477;-50
2022/10/26 06:31:17;;;;;;;236.30;222.03;;;;;;;9.23;100.00;101577.88;5001640;28;20456;-47
2022/10/26 06:33:45;;;;;;;329.50;250.93;;;;;;;9.26;100.00;101574.88;5012677;28;20433;-48
2022/10/26 06:36:21;;;;;;;342.63;251.77;;;;;;;9.29;100.00;101577.22;5012144;28;21129;-47
2022/10/26 06:38:54;;;;;;;269.47;240.93;;;;;;;9.30;100.00;101579.72;5011574;28;21026;-48
2022/10/26 06:41:23;;;;;;;448.27;265.33;;;;;;;9.35;100.00;101576.53;5010323;28;20483;-48
2022/10/26 06:43:52;;;;;;;273.77;246.17;;;;;;;9.39;100.00;101578.72;5012254;28;20485;-50
2022/10/26 06:46:30;;;;;;;281.23;258.17;;;;;;;9.44;100.00;101584.34;5012524;28;20519;-49
2022/10/26 06:49:05;;;;;;;287.83;260.50;;;;;;;9.52;100.00;101580.03;5012051;28;20846;-48
2022/10/26 06:51:40;;;;;;;278.33;258.33;;;;;;;9.59;100.00;101581.03;5011777;28;20999;-46
2022/10/26 06:54:16;;;;;;;261.27;246.47;;;;;;;9.66;100.00;101588.16;5012426;28;20463;-49
2022/10/26 06:56:46;;;;;;;250.87;238.97;;;;;;;9.79;100.00;101590.28;5011783;28;20483;-51
2022/10/26 06:59:23;;;;;;;260.27;246.13;;;;;;;9.91;100.00;101589.75;5002947;28;20905;-51
2022/10/26 07:01:50;;;;;;;262.17;248.20;;;;;;;10.01;100.00;101581.53;5012028;28;20432;-52
2022/10/26 07:04:18;;;;;;;263.87;250.27;;;;;;;10.15;100.00;101586.19;5011800;28;20440;-51
2022/10/26 07:06:46;;;;;;;267.60;254.43;;;;;;;10.28;100.00;101593.63;5012126;28;20509;-48
2022/10/26 07:09:13;;;;;;;286.00;271.00;;;;;;;10.33;100.00;101585.94;5010654;28;20468;-50
2022/10/26 07:11:41;;;;;;;282.60;269.00;;;;;;;10.39;100.00;101582.59;5010817;28;20454;-49
2022/10/26 07:14:08;;;;;;;294.73;279.33;;;;;;;10.46;100.00;101592.34;5011932;28;20433;-46
2022/10/26 07:16:37;;;;;;;292.07;276.47;;;;;;;10.49;100.00;101586.69;5012451;28;20854;-51
2022/10/26 07:19:05;;;;;;;290.83;277.43;;;;;;;10.53;100.00;101593.34;5004652;28;21075;-52
2022/10/26 07:21:32;;;;;;;295.70;280.77;;;;;;;10.59;100.00;101598.97;5019112;28;20433;-49
2022/10/26 07:24:00;;;;;;;302.00;287.40;;;;;;;10.63;100.00;101597.63;5016614;28;20444;-51
2022/10/26 07:26:28;;;;;;;294.73;280.90;;;;;;;10.66;100.00;101595.44;5007902;28;20863;-50
2022/10/26 07:28:55;;;;;;;300.27;284.47;;;;;;;10.72;100.00;101601.91;5011161;28;20877;-46
2022/10/26 07:31:23;;;;;;;295.87;282.67;;;;;;;10.79;100.00;101598.31;5011755;28;20433;-50
2022/10/26 07:33:53;;;;;;;288.83;276.50;;;;;;;10.84;100.00;101597.81;5011597;28;20464;-51
2022/10/26 07:36:21;;;;;;;294.53;281.60;;;;;;;10.92;100.00;101597.75;5011254;28;20966;-48
2022/10/26 07:38:51;;;;;;;300.13;286.73;;;;;;;10.98;100.00;101603.19;5008791;28;20429;-47
2022/10/26 07:41:19;;;;;;;299.63;285.50;;;;;;;11.09;100.00;101604.63;5011233;28;20488;-47
2022/10/26 07:43:49;;;;;;;299.83;287.33;;;;;;;11.15;100.00;101609.22;5011022;28;20437;-49
2022/10/26 07:46:17;;;;;;;304.57;291.97;;;;;;;11.19;100.00;101610.56;5011446;28;20962;-53
2022/10/26 07:48:45;;;;;;;299.57;286.67;;;;;;;11.26;100.00;101600.00;5010467;28;20523;-47
2022/10/26 07:51:14;;;;;;;296.73;284.47;;;;;;;11.33;100.00;101612.41;5008662;28;20855;-48
2022/10/26 07:53:42;;;;;;;299.83;287.13;;;;;;;11.42;100.00;101607.84;5011342;28;20495;-51
2022/10/26 07:56:10;;;;;;;313.63;298.80;;;;;;;11.43;100.00;101605.00;5010889;28;20433;-46
2022/10/26 07:58:38;;;;;;;308.03;294.90;;;;;;;11.57;100.00;101608.69;5004503;28;20488;-45
2022/10/26 08:01:07;;;;;;;301.53;289.47;;;;;;;11.66;100.00;101607.59;5011325;28;20425;-51
2022/10/26 08:03:35;;;;;;;326.57;312.20;;;;;;;11.72;100.00;101603.41;5010486;28;20443;-48
2022/10/26 08:06:03;;;;;;;331.47;315.90;;;;;;;11.73;100.00;101602.41;5008538;28;20429;-49
2022/10/26 08:08:33;;;;;;;314.10;299.97;;;;;;;11.76;100.00;101600.19;5009097;28;20847;-48
2022/10/26 08:11:00;;;;;;;314.33;301.83;;;;;;;11.84;100.00;101610.78;5010325;28;21009;-46
2022/10/26 08:13:28;;;;;;;312.73;299.83;;;;;;;11.96;100.00;101605.81;5008047;28;20840;-51
2022/10/26 08:15:59;;;;;;;309.97;297.13;;;;;;;12.08;100.00;101605.16;5006723;28;20429;-48
2022/10/26 08:18:28;;;;;;;312.37;299.87;;;;;;;12.18;100.00;101615.59;5010927;28;20842;-49
2022/10/26 08:21:00;;;;;;;289.00;277.67;;;;;;;12.37;100.00;101615.00;5003649;28;21216;-48
2022/10/26 08:23:40;;;;;;;293.83;282.10;;;;;;;12.50;100.00;101609.81;5014048;28;20429;-49
2022/10/26 08:26:10;;;;;;;294.20;282.43;;;;;;;12.62;100.00;101618.19;5010723;28;20467;-51
2022/10/26 08:28:38;;;;;;;280.70;268.70;;;;;;;12.67;100.00;101613.91;4997176;28;21207;-48
2022/10/26 08:31:07;;;;;;;277.93;266.33;;;;;;;12.72;100.00;101621.38;5003583;28;20434;-51
2022/10/26 08:33:34;;;;;;;259.47;249.60;;;;;;;12.86;100.00;101614.31;5008366;28;20831;-48
2022/10/26 08:36:05;;;;;;;253.40;243.30;;;;;;;13.03;100.00;101619.22;5009086;28;20437;-51
2022/10/26 08:38:33;;;;;;;234.90;225.67;;;;;;;13.10;100.00;101617.47;5009488;28;20471;-49
2022/10/26 08:41:07;;;;;;;222.00;212.20;;;;;;;13.20;100.00;101612.63;5007321;28;20830;-46
2022/10/26 08:43:40;;;;;;;210.03;201.90;;;;;;;13.34;100.00;101602.84;5010039;28;20441;-50
2022/10/26 08:46:13;;;;;;;206.70;197.70;;;;;;;13.47;100.00;101608.31;5011442;28;20456;-48
2022/10/26 08:48:46;;;;;;;193.67;185.17;;;;;;;13.59;100.00;101592.53;5009915;28;20473;-46
2022/10/26 08:51:18;;;;;;;163.27;156.17;;;;;;;13.70;100.00;101603.56;5009926;28;20773;-47
2022/10/26 08:53:51;;;;;;;166.77;159.67;;;;;;;13.70;100.00;101594.69;5002037;28;20764;-52
2022/10/26 08:56:23;;;;;;;158.10;150.70;;;;;;;13.81;100.00;101589.59;5010365;28;20460;-51
2022/10/26 08:58:55;;;;;;;134.97;128.80;;;;;;;13.97;100.00;101585.78;5009969;28;20465;-50
2022/10/26 09:01:23;;;;;;;128.60;122.40;;;;;;;14.10;100.00;101590.34;5011945;28;20484;-48
2022/10/26 09:03:51;;;;;;;112.07;106.03;;;;;;;14.22;100.00;101578.84;5012527;28;20446;-51
2022/10/26 09:06:27;;;;;;;101.97;96.37;;;;;;;14.39;100.00;101576.69;5014071;28;20989;-52
2022/10/26 09:09:03;;;;;;;91.60;86.87;;;;;;;14.49;100.00;101566.41;5013633;28;20519;-51
2022/10/26 09:11:53;;;;;;;77.97;73.13;;;;;;;14.58;100.00;101572.41;5010871;28;20432;-46
2022/10/26 09:14:28;;;;;;;67.87;63.80;;;;;;;14.71;100.00;101562.53;5004619;28;20421;-51
2022/10/26 09:17:04;;;;;;;67.53;63.23;;;;;;;14.80;100.00;101564.00;5014563;28;20464;-51
2022/10/26 09:19:48;;;;;;;59.40;55.60;;;;;;;14.84;100.00;101569.81;5013438;28;20479;-50
2022/10/26 09:22:24;;;;;;;61.03;56.87;;;;;;;14.81;100.00;101576.38;5016990;28;20437;-50
2022/10/26 09:24:54;;;;;;;56.97;53.00;;;;;;;14.79;100.00;101564.19;5014062;28;20779;-46
2022/10/26 09:27:28;;;;;;;55.00;51.10;;;;;;;14.77;100.00;101560.91;5013763;28;20449;-49
2022/10/26 09:29:57;;;;;;;52.67;48.93;;;;;;;14.79;100.00;101565.03;5013268;28;20531;-47
2022/10/26 09:32:31;;;;;;;53.40;49.73;;;;;;;14.89;100.00;101570.00;5008003;28;20429;-52
2022/10/26 09:35:04;;;;;;;53.27;49.23;;;;;;;14.90;100.00;101566.28;5007013;28;20441;-52
2022/10/26 09:37:34;;;;;;;51.43;47.73;;;;;;;14.94;100.00;101568.34;5013512;28;20707;-48
2022/10/26 09:40:11;;;;;;;53.90;49.60;;;;;;;15.02;100.00;101566.50;5013170;28;20507;-51
2022/10/26 09:42:44;;;;;;;52.90;49.10;;;;;;;15.06;100.00;101565.88;5013452;28;20483;-49
2022/10/26 09:45:17;;;;;;;50.87;46.93;;;;;;;15.08;100.00;101565.69;5013385;28;20489;-50
2022/10/26 09:47:51;;;;;;;48.37;44.97;;;;;;;15.25;100.00;101565.06;5010528;28;20874;-52
2022/10/26 09:50:24;;;;;;;48.13;44.53;;;;;;;15.45;100.00;101562.34;5011371;28;20472;-46
2022/10/26 09:52:52;;;;;;;48.03;44.67;;;;;;;15.63;100.00;101561.75;5012116;28;20433;-47
2022/10/26 09:55:21;;;;;;;49.67;46.07;;;;;;;15.71;100.00;101566.91;5013386;28;20461;-51
2022/10/26 09:57:53;;;;;;;50.73;47.00;;;;;;;15.76;100.00;101546.41;5013711;28;20507;-48
2022/10/26 10:00:23;;;;;;;46.97;43.93;;;;;;;15.78;100.00;101549.72;5001932;28;20454;-45
2022/10/26 10:02:53;;;;;;;45.73;42.77;;;;;;;15.88;100.00;101552.81;5004250;28;20426;-52
2022/10/26 10:05:24;;;;;;;45.67;42.60;;;;;;;15.98;100.00;101553.16;5006897;28;20444;-49
2022/10/26 10:08:17;;;;;;;46.50;42.97;;;;;;;16.06;100.00;101552.13;5002640;28;20525;-49
2022/10/26 10:10:59;;;;;;;45.60;42.83;;;;;;;16.12;100.00;101550.44;4993543;28;20504;-50
2022/10/26 10:13:30;;;;;;;43.97;41.27;;;;;;;16.03;100.00;101564.13;4994114;28;20503;-46
2022/10/26 10:16:04;;;;;;;45.10;41.90;;;;;;;16.21;100.00;101559.91;5013394;28;20964;-49
2022/10/26 10:18:32;;;;;;;48.27;43.70;;;;;;;16.41;100.00;101558.78;5012451;28;20914;-47
2022/10/26 10:21:01;;;;;;;45.43;42.47;;;;;;;16.64;100.00;101566.34;5011934;28;20464;-47
2022/10/26 10:23:31;;;;;;;45.67;42.87;;;;;;;16.80;100.00;101571.22;5012846;28;20435;-52
2022/10/26 10:26:06;;;;;;;45.00;42.10;;;;;;;17.03;100.00;101571.47;5013029;28;20837;-52
2022/10/26 10:28:36;;;;;;;43.70;41.20;;;;;;;17.13;100.00;101568.28;4993110;28;20480;-48
2022/10/26 10:31:05;;;;;;;41.40;39.00;;;;;;;17.26;100.00;101561.97;5000218;28;20468;-52
2022/10/26 10:33:36;;;;;;;40.80;38.50;;;;;;;17.34;100.00;101570.59;5012651;28;20443;-51
2022/10/26 10:36:08;;;;;;;39.70;37.57;;;;;;;17.45;100.00;101564.47;4994783;28;20430;-52
2022/10/26 10:38:43;;;;;;;41.00;38.33;;;;;;;17.41;100.00;101562.47;5005981;28;20491;-51
2022/10/26 10:41:17;;;;;;;39.27;36.90;;;;;;;17.43;100.00;101565.75;4993318;28;20425;-51
2022/10/26 10:43:49;;;;;;;40.40;37.97;;;;;;;17.40;100.00;101566.19;4998753;28;20433;-50
2022/10/26 10:46:23;;;;;;;40.43;37.90;;;;;;;17.40;100.00;101569.72;5003494;28;20473;-50
2022/10/26 10:48:55;;;;;;;41.57;38.60;;;;;;;17.46;100.00;101562.63;5018642;28;20455;-46
2022/10/26 10:51:25;;;;;;;40.20;37.80;;;;;;;17.60;100.00;101566.84;5023908;28;20521;-48
2022/10/26 10:53:55;;;;;;;38.87;36.70;;;;;;;17.57;100.00;101559.22;4997803;28;20915;-46
2022/10/26 10:56:37;;;;;;;39.10;36.50;;;;;;;17.50;100.00;101558.44;5001225;28;20553;-47
2022/10/26 10:59:36;;;;;;;38.10;36.00;;;;;;;17.50;100.00;101571.91;5011154;28;20464;-46
2022/10/26 11:02:29;;;;;;;38.07;35.93;;;;;;;17.61;100.00;101579.31;5005781;28;20481;-50
2022/10/26 11:05:12;;;;;;;36.27;34.37;;;;;;;17.59;100.00;101573.31;4996973;28;20433;-49
2022/10/26 11:07:46;;;;;;;36.53;34.50;;;;;;;17.61;100.00;101576.59;4992722;28;20445;-51
2022/10/26 11:10:18;;;;;;;37.50;35.10;;;;;;;17.63;100.00;101571.81;4999388;28;20472;-48